Time;durP1;ratioP1;P1;durP2;ratioP2;P2;SDS_P1;SDS_P2;PMS_P1;PMS_P2;Temp;Humidity;BMP_temperature;BMP_pressure;BME280_temperature;BME280_humidity;BME280_pressure;Samples;Min_cycle;Max_cycle;Signal;HPM_P1;HPM_P2
2021/12/04 00:00:09;;;;;;;1066.63;996.08;;;;;;;2.30;70.43;99846.25;690198;28;46333;-66
2021/12/04 00:00:37;;;;;;;1066.57;995.70;;;;;;;2.33;70.58;99856.63;687418;28;138592;-65
2021/12/04 00:01:05;;;;;;;1070.45;999.25;;;;;;;2.36;70.44;99848.31;687251;28;91777;-65
2021/12/04 00:01:27;;;;;;;1067.75;996.45;;;;;;;2.35;70.65;99851.97;689914;28;91808;-65
2021/12/04 00:01:49;;;;;;;1068.07;997.13;;;;;;;2.33;70.79;99841.44;691291;28;23470;-65
2021/12/04 00:02:10;;;;;;;1062.65;993.42;;;;;;;2.36;70.88;99855.50;690551;28;46270;-66
2021/12/04 00:02:33;;;;;;;1061.03;993.38;;;;;;;2.37;70.76;99858.00;692307;28;1446;-66
2021/12/04 00:02:54;;;;;;;1061.70;992.75;;;;;;;2.37;70.51;99844.69;690874;28;4181;-66
2021/12/04 00:03:16;;;;;;;1055.25;986.20;;;;;;;2.39;70.56;99855.19;691638;28;22388;-66
2021/12/04 00:03:37;;;;;;;1056.53;987.83;;;;;;;2.38;70.70;99850.84;690381;28;46317;-66
2021/12/04 00:03:59;;;;;;;1060.72;991.78;;;;;;;2.37;70.64;99842.03;690974;28;22386;-66
2021/12/04 00:04:23;;;;;;;1057.80;988.83;;;;;;;2.37;70.70;99850.03;690044;28;67502;-66
2021/12/04 00:04:48;;;;;;;1050.00;979.60;;;;;;;2.34;70.72;99847.66;688176;28;92281;-66
2021/12/04 00:05:09;;;;;;;1043.68;973.25;;;;;;;2.33;70.76;99846.78;687858;28;115089;-66
2021/12/04 00:05:31;;;;;;;1044.93;974.13;;;;;;;2.34;70.78;99853.81;691743;28;22393;-66
2021/12/04 00:05:54;;;;;;;1047.57;976.78;;;;;;;2.33;70.78;99846.78;690033;28;44028;-66
2021/12/04 00:06:21;;;;;;;1046.00;975.30;;;;;;;2.31;70.95;99856.75;689079;28;92416;-66
2021/12/04 00:06:42;;;;;;;1045.93;975.38;;;;;;;2.32;70.94;99866.44;686962;28;137560;-66
2021/12/04 00:07:07;;;;;;;1051.88;981.17;;;;;;;2.36;70.81;99850.16;691116;28;23406;-66
2021/12/04 00:07:30;;;;;;;1059.82;988.72;;;;;;;2.33;70.72;99846.78;688715;28;114905;-65
2021/12/04 00:07:54;;;;;;;1062.35;991.00;;;;;;;2.33;70.84;99848.63;688123;28;69826;-66
2021/12/04 00:08:15;;;;;;;1042.05;971.78;;;;;;;2.34;70.98;99844.97;689302;28;93001;-65
2021/12/04 00:08:37;;;;;;;1039.72;969.55;;;;;;;2.33;70.96;99843.28;690375;28;45242;-66
2021/12/04 00:09:04;;;;;;;1063.30;992.00;;;;;;;2.31;70.92;99846.09;690238;28;45258;-66
2021/12/04 00:09:25;;;;;;;1060.38;989.17;;;;;;;2.31;70.95;99839.94;688136;28;137429;-66
2021/12/04 00:09:50;;;;;;;1062.70;991.42;;;;;;;2.29;70.97;99837.41;690799;28;22212;-66
2021/12/04 00:10:16;;;;;;;1070.93;999.22;;;;;;;2.28;70.98;99843.72;688078;28;116386;-66
2021/12/04 00:10:37;;;;;;;1069.72;998.13;;;;;;;2.28;71.05;99840.22;686038;28;160980;-66
2021/12/04 00:10:59;;;;;;;1063.95;992.53;;;;;;;2.30;71.03;99843.56;690215;28;46339;-66
2021/12/04 00:11:21;;;;;;;1055.15;983.95;;;;;;;2.31;71.17;99837.28;692663;28;23498;-66
2021/12/04 00:11:51;;;;;;;1052.80;981.60;;;;;;;2.29;71.24;99839.25;689730;28;46268;-66
2021/12/04 00:12:14;;;;;;;1050.55;979.45;;;;;;;2.30;71.14;99833.78;687148;28;138042;-66
2021/12/04 00:12:36;;;;;;;1053.57;982.28;;;;;;;2.30;71.20;99827.59;689264;28;69606;-66
2021/12/04 00:12:57;;;;;;;1055.80;984.50;;;;;;;2.26;71.35;99829.72;689208;28;66386;-66
2021/12/04 00:13:22;;;;;;;1053.40;982.25;;;;;;;2.28;71.38;99837.56;689144;28;93225;-66
2021/12/04 00:13:47;;;;;;;1053.50;982.30;;;;;;;2.30;71.41;99840.91;686779;28;136049;-66
2021/12/04 00:14:09;;;;;;;1057.10;985.80;;;;;;;2.31;71.24;99846.09;691058;28;22401;-66
2021/12/04 00:14:30;;;;;;;1063.70;992.17;;;;;;;2.31;71.33;99838.09;690512;28;45228;-66
2021/12/04 00:14:52;;;;;;;1060.20;988.70;;;;;;;2.34;70.99;99836.97;691000;28;24310;-66
2021/12/04 00:15:14;;;;;;;1060.38;988.97;;;;;;;2.31;71.13;99827.44;690521;28;46283;-66
2021/12/04 00:15:36;;;;;;;1070.22;998.38;;;;;;;2.29;71.03;99834.75;690405;28;46271;-66
2021/12/04 00:15:57;;;;;;;1069.88;998.05;;;;;;;2.31;71.10;99837.28;689109;28;44546;-66
2021/12/04 00:16:18;;;;;;;1069.35;997.55;;;;;;;2.31;71.21;99831.94;690899;28;21518;-66
2021/12/04 00:16:39;;;;;;;1069.47;997.58;;;;;;;2.30;71.10;99841.78;690932;28;23731;-66
2021/12/04 00:17:01;;;;;;;1066.95;995.30;;;;;;;2.29;71.12;99832.09;691739;28;1056;-66
2021/12/04 00:17:23;;;;;;;1060.13;988.83;;;;;;;2.32;71.15;99841.59;691983;28;1355;-66
2021/12/04 00:17:45;;;;;;;1061.18;989.67;;;;;;;2.32;71.10;99836.28;685409;28;69883;-66
2021/12/04 00:18:06;;;;;;;1067.10;995.33;;;;;;;2.31;71.12;99837.28;689282;28;21603;-66
2021/12/04 00:18:28;;;;;;;1064.57;993.00;;;;;;;2.30;71.24;99855.09;688937;28;45255;-66
2021/12/04 00:18:50;;;;;;;1061.15;990.20;;;;;;;2.31;71.14;99834.63;689345;28;24403;-66
2021/12/04 00:19:11;;;;;;;1068.40;996.97;;;;;;;2.30;71.15;99830.25;689168;28;46204;-66
2021/12/04 00:19:39;;;;;;;1062.20;990.90;;;;;;;2.30;71.27;99843.56;689763;28;59901;-66
2021/12/04 00:20:01;;;;;;;1069.88;998.17;;;;;;;2.29;71.30;99841.91;690229;28;45215;-66
2021/12/04 00:20:24;;;;;;;1066.43;994.65;;;;;;;2.33;71.11;99840.63;690863;28;46343;-66
2021/12/04 00:20:45;;;;;;;1055.00;983.63;;;;;;;2.31;71.49;99831.94;689563;28;46319;-66
2021/12/04 00:21:10;;;;;;;1053.72;982.42;;;;;;;2.31;71.35;99821.28;690810;28;22392;-66
2021/12/04 00:21:32;;;;;;;1060.05;988.55;;;;;;;2.32;71.18;99833.59;687377;28;138062;-66
2021/12/04 00:21:54;;;;;;;1066.18;994.38;;;;;;;2.33;71.31;99828.13;690834;28;23454;-66
2021/12/04 00:22:15;;;;;;;1067.32;995.42;;;;;;;2.35;71.37;99846.63;689236;28;69698;-65
2021/12/04 00:22:37;;;;;;;1058.75;987.35;;;;;;;2.34;71.27;99829.00;690661;28;22411;-66
2021/12/04 00:23:00;;;;;;;1060.50;989.13;;;;;;;2.33;70.91;99841.44;692241;28;22360;-66
2021/12/04 00:23:21;;;;;;;1063.35;992.65;;;;;;;2.33;71.13;99833.47;690530;28;67489;-66
2021/12/04 00:23:42;;;;;;;1062.32;992.17;;;;;;;2.32;71.10;99830.94;692165;28;23492;-66
2021/12/04 00:24:04;;;;;;;1057.50;988.75;;;;;;;2.30;71.26;99839.13;692576;28;6752;-66
2021/12/04 00:24:26;;;;;;;1057.55;990.13;;;;;;;2.33;71.13;99828.13;691837;28;22284;-65
2021/12/04 00:24:47;;;;;;;1060.43;992.30;;;;;;;2.32;71.10;99826.47;688987;28;44450;-66
2021/12/04 00:25:09;;;;;;;1052.03;982.50;;;;;;;2.31;71.29;99837.28;688967;28;46319;-65
2021/12/04 00:25:30;;;;;;;1055.50;984.75;;;;;;;2.31;71.37;99848.75;691423;28;23586;-65
2021/12/04 00:25:52;;;;;;;1054.20;983.13;;;;;;;2.32;71.36;99831.81;691158;28;22224;-65
2021/12/04 00:26:13;;;;;;;1064.05;992.67;;;;;;;2.36;71.22;99831.50;690373;28;45236;-65
2021/12/04 00:26:38;;;;;;;1071.93;999.60;;;;;;;2.34;71.17;99836.97;691338;28;21508;-65
2021/12/04 00:26:59;;;;;;;1061.35;989.92;;;;;;;2.34;71.22;99831.66;686657;28;115126;-65
2021/12/04 00:27:22;;;;;;;1063.40;992.22;;;;;;;2.26;71.27;99826.22;691435;28;23463;-66
2021/12/04 00:27:44;;;;;;;1060.50;990.83;;;;;;;2.29;71.25;99836.59;687257;28;92229;-66
2021/12/04 00:28:06;;;;;;;1050.93;981.30;;;;;;;2.26;71.44;99828.88;689489;28;47202;-65
2021/12/04 00:28:27;;;;;;;1016.13;947.08;;;;;;;2.24;71.52;99821.03;691508;28;21505;-65
2021/12/04 00:28:48;;;;;;;1004.63;936.13;;;;;;;2.24;71.41;99815.72;691049;28;22295;-65
2021/12/04 00:29:10;;;;;;;1009.17;940.58;;;;;;;2.26;71.56;99823.56;690785;28;22383;-65
2021/12/04 00:29:32;;;;;;;1016.45;947.47;;;;;;;2.25;71.47;99828.03;689908;28;69427;-66
2021/12/04 00:29:54;;;;;;;1025.22;955.88;;;;;;;2.26;71.60;99819.06;690153;28;45333;-65
2021/12/04 00:30:15;;;;;;;1024.82;955.53;;;;;;;2.27;71.58;99830.53;692006;28;1569;-66
2021/12/04 00:30:37;;;;;;;1026.13;956.72;;;;;;;2.28;71.56;99818.91;690320;28;45244;-65
2021/12/04 00:30:58;;;;;;;1030.85;961.15;;;;;;;2.28;71.52;99822.41;690587;28;46134;-65
2021/12/04 00:31:20;;;;;;;1035.10;965.30;;;;;;;2.28;71.56;99822.41;692171;28;22405;-65
2021/12/04 00:31:46;;;;;;;1031.45;961.75;;;;;;;2.29;71.41;99825.94;690679;28;24182;-65
2021/12/04 00:32:13;;;;;;;1034.13;964.15;;;;;;;2.29;71.50;99826.75;687691;28;118783;-65
2021/12/04 00:32:35;;;;;;;1039.43;969.20;;;;;;;2.30;71.56;99816.94;687418;28;136430;-66
2021/12/04 00:32:59;;;;;;;1036.90;967.00;;;;;;;2.29;71.80;99831.25;687915;28;89067;-65
2021/12/04 00:33:23;;;;;;;1018.75;949.78;;;;;;;2.30;71.57;99820.47;688880;28;92292;-64
2021/12/04 00:33:47;;;;;;;1010.25;941.65;;;;;;;2.32;71.61;99828.28;688297;28;92301;-65
2021/12/04 00:34:08;;;;;;;1010.95;942.40;;;;;;;2.36;70.94;99826.19;689351;28;69456;-65
2021/12/04 00:34:31;;;;;;;1013.35;944.67;;;;;;;2.34;71.42;99821.81;691926;28;23376;-66
2021/12/04 00:34:56;;;;;;;1024.38;955.28;;;;;;;2.35;71.47;99820.00;689479;28;69354;-66
2021/12/04 00:35:22;;;;;;;1029.10;959.70;;;;;;;2.37;71.48;99825.19;688177;28;115914;-66
2021/12/04 00:35:46;;;;;;;1023.72;954.42;;;;;;;2.38;71.37;99819.69;687176;28;136798;-65
2021/12/04 00:36:10;;;;;;;1024.13;954.92;;;;;;;2.38;71.50;99826.88;688579;28;91909;-65
2021/12/04 00:36:36;;;;;;;1026.97;957.60;;;;;;;2.38;71.38;99830.34;690123;28;67478;-65
2021/12/04 00:37:10;;;;;;;1015.65;946.78;;;;;;;2.39;71.39;99825.88;688743;28;87029;-65
2021/12/04 00:49:09;;;;;;;1018.17;949.08;;;;;;;2.26;71.92;99821.72;687185;28;137258;-65
2021/12/04 00:49:31;;;;;;;1015.13;946.33;;;;;;;2.26;71.91;99820.91;686526;28;160893;-65
2021/12/04 00:49:52;;;;;;;1022.42;953.33;;;;;;;2.28;71.92;99821.56;690146;28;46389;-65
2021/12/04 00:50:13;;;;;;;1027.43;958.05;;;;;;;2.27;71.98;99831.41;691356;28;22363;-65
2021/12/04 00:50:35;;;;;;;1028.25;958.83;;;;;;;2.25;71.98;99828.03;691050;28;22386;-66
2021/12/04 00:50:56;;;;;;;1034.30;964.65;;;;;;;2.24;71.92;99818.38;690103;28;44368;-65
2021/12/04 00:51:17;;;;;;;1037.57;967.78;;;;;;;2.23;71.80;99821.19;691353;28;21551;-65
2021/12/04 00:51:41;;;;;;;1033.60;963.90;;;;;;;2.22;72.15;99817.66;690803;28;23455;-65
2021/12/04 00:52:03;;;;;;;1033.03;963.42;;;;;;;2.22;71.99;99825.66;688919;28;92242;-65
2021/12/04 00:52:24;;;;;;;1035.22;965.47;;;;;;;2.24;71.87;99825.50;692134;28;1752;-65
2021/12/04 00:52:46;;;;;;;1023.65;954.33;;;;;;;2.27;71.84;99827.88;689181;28;45020;-65
2021/12/04 00:53:07;;;;;;;1019.83;950.63;;;;;;;2.26;71.94;99826.22;691047;28;22442;-65
2021/12/04 00:53:28;;;;;;;1030.45;960.75;;;;;;;2.24;71.93;99820.19;691123;28;22414;-66
2021/12/04 00:53:54;;;;;;;1033.38;963.63;;;;;;;2.22;71.99;99817.66;691747;28;1022;-65
2021/12/04 00:54:15;;;;;;;1028.57;959.00;;;;;;;2.23;72.13;99816.69;687147;28;138824;-65
2021/12/04 00:54:37;;;;;;;1030.13;960.55;;;;;;;2.23;72.06;99823.84;690109;28;47425;-65
2021/12/04 00:54:58;;;;;;;1034.13;964.33;;;;;;;2.21;72.33;99818.66;691898;28;1121;-65
2021/12/04 00:55:20;;;;;;;1034.65;964.85;;;;;;;2.23;71.94;99813.19;691244;28;23487;-65
2021/12/04 00:55:42;;;;;;;1027.17;957.77;;;;;;;2.24;72.23;99820.19;689219;28;69472;-66
2021/12/04 00:56:03;;;;;;;1026.93;957.53;;;;;;;2.21;72.08;99813.34;696238;28;19129;-66
2021/12/04 00:56:26;;;;;;;1024.45;955.15;;;;;;;2.21;72.31;99821.34;695906;28;44326;-66
2021/12/04 00:56:47;;;;;;;1032.47;962.80;;;;;;;2.23;72.21;99815.84;695566;28;43966;-66
2021/12/04 00:57:08;;;;;;;1036.93;967.03;;;;;;;2.24;72.19;99823.69;695690;28;40083;-66
2021/12/04 00:57:30;;;;;;;1034.47;964.67;;;;;;;2.25;72.15;99817.38;697068;28;23446;-66
2021/12/04 00:57:53;;;;;;;1040.10;969.80;;;;;;;2.25;72.19;99820.03;691335;28;45182;-66
2021/12/04 00:58:14;;;;;;;1045.38;975.05;;;;;;;2.27;72.12;99822.56;690484;28;44537;-66
2021/12/04 00:58:35;;;;;;;1037.28;967.30;;;;;;;2.28;72.09;99816.25;691188;28;22272;-66
2021/12/04 00:58:56;;;;;;;1021.22;951.97;;;;;;;2.26;72.19;99818.22;690981;28;22356;-66
2021/12/04 00:59:19;;;;;;;1021.35;952.08;;;;;;;2.24;72.23;99812.19;691495;28;22390;-66
2021/12/04 00:59:40;;;;;;;1029.43;959.72;;;;;;;2.25;72.21;99819.19;687875;28;69422;-66
2021/12/04 01:00:02;;;;;;;1030.35;960.72;;;;;;;2.25;72.24;99813.88;689729;28;22432;-66
2021/12/04 01:00:23;;;;;;;1032.70;963.00;;;;;;;2.28;72.19;99829.56;691176;28;36278;-66
2021/12/04 01:00:45;;;;;;;1036.25;966.45;;;;;;;2.30;72.19;99817.78;691235;28;21517;-66
2021/12/04 01:01:06;;;;;;;1037.88;968.03;;;;;;;2.31;72.04;99821.28;690546;28;47369;-66
2021/12/04 01:01:28;;;;;;;1032.47;962.95;;;;;;;2.30;71.98;99817.78;691467;28;21473;-66
2021/12/04 01:01:49;;;;;;;1035.40;965.80;;;;;;;2.30;71.90;99819.59;689617;28;22384;-66
2021/12/04 01:02:11;;;;;;;1035.30;965.67;;;;;;;2.30;71.92;99816.94;691293;28;23413;-66
2021/12/04 01:02:32;;;;;;;1036.10;966.50;;;;;;;2.30;71.75;99817.78;690261;28;44211;-66
2021/12/04 01:02:54;;;;;;;1035.90;966.20;;;;;;;2.29;71.78;99820.59;689550;28;46275;-65
2021/12/04 01:03:15;;;;;;;1034.05;964.47;;;;;;;2.29;71.86;99821.44;691222;28;23395;-66
2021/12/04 01:03:36;;;;;;;1037.88;968.17;;;;;;;2.29;71.89;99815.28;690569;28;23628;-66
2021/12/04 01:03:58;;;;;;;1037.00;967.25;;;;;;;2.29;71.98;99818.78;690822;28;23555;-66
2021/12/04 01:04:22;;;;;;;1039.18;969.38;;;;;;;2.28;72.02;99822.41;690616;28;44397;-66
2021/12/04 01:04:44;;;;;;;1033.22;963.72;;;;;;;2.27;71.87;99819.88;687295;28;115191;-66
2021/12/04 01:05:05;;;;;;;1033.32;963.83;;;;;;;2.28;71.98;99813.59;690862;28;23925;-66
2021/12/04 01:05:27;;;;;;;1033.20;963.70;;;;;;;2.27;72.18;99823.41;690453;28;44363;-66
2021/12/04 01:05:48;;;;;;;1035.03;965.33;;;;;;;2.25;72.10;99808.56;689699;28;46257;-66
2021/12/04 01:06:09;;;;;;;1037.97;968.22;;;;;;;2.30;71.96;99815.13;691209;28;23432;-66
2021/12/04 01:06:31;;;;;;;1038.30;968.50;;;;;;;2.31;72.02;99818.63;691705;28;15706;-66
2021/12/04 01:06:53;;;;;;;1039.38;969.47;;;;;;;2.31;72.06;99821.28;691090;28;23604;-65
2021/12/04 01:07:16;;;;;;;1043.70;973.60;;;;;;;2.33;71.99;99811.31;690664;28;46519;-66
2021/12/04 01:07:37;;;;;;;1044.00;973.95;;;;;;;2.31;71.79;99813.28;688407;28;59944;-66
2021/12/04 01:07:58;;;;;;;1045.82;975.65;;;;;;;2.29;71.91;99810.78;690496;28;22480;-66
2021/12/04 01:08:19;;;;;;;1038.93;969.03;;;;;;;2.31;72.03;99819.44;691436;28;23397;-66
2021/12/04 01:08:41;;;;;;;1038.03;968.22;;;;;;;2.32;71.97;99812.28;690840;28;21553;-66
2021/12/04 01:09:03;;;;;;;1038.53;968.85;;;;;;;2.32;72.04;99820.28;689164;28;69434;-66
2021/12/04 01:09:26;;;;;;;1048.03;978.42;;;;;;;2.32;72.17;99823.81;691844;28;14445;-66
2021/12/04 01:09:47;;;;;;;1041.10;971.28;;;;;;;2.34;72.01;99815.66;690080;28;46285;-66
2021/12/04 01:10:09;;;;;;;1036.20;966.30;;;;;;;2.33;72.06;99816.63;691011;28;22273;-66
2021/12/04 01:10:32;;;;;;;1032.80;963.00;;;;;;;2.31;72.18;99818.63;691633;28;15697;-66
2021/12/04 01:10:53;;;;;;;1040.38;970.35;;;;;;;2.31;72.18;99818.63;690121;28;46271;-66
2021/12/04 01:11:14;;;;;;;1041.97;971.92;;;;;;;2.30;72.19;99828.44;691470;28;21534;-66
2021/12/04 01:11:37;;;;;;;1036.45;966.58;;;;;;;2.31;72.42;99814.13;690823;28;22370;-66
2021/12/04 01:11:58;;;;;;;1040.85;970.75;;;;;;;2.31;72.11;99810.63;688851;28;69421;-66
2021/12/04 01:12:20;;;;;;;1029.68;960.03;;;;;;;2.32;72.20;99822.94;691619;28;21508;-66
2021/12/04 01:12:42;;;;;;;1020.70;951.40;;;;;;;2.30;72.13;99822.25;689518;28;45220;-66
2021/12/04 01:13:11;;;;;;;1028.18;958.72;;;;;;;2.29;72.28;99816.09;691248;28;36442;-66
2021/12/04 01:13:33;;;;;;;1035.63;965.83;;;;;;;2.29;72.30;99816.09;687766;28;137920;-66
2021/12/04 01:13:54;;;;;;;1043.18;973.05;;;;;;;2.28;72.41;99816.25;690909;28;46322;-66
2021/12/04 01:14:18;;;;;;;1045.97;975.78;;;;;;;2.29;72.29;99823.28;692148;28;24166;-66
2021/12/04 01:14:40;;;;;;;1043.05;972.88;;;;;;;2.28;72.29;99824.25;690078;28;70334;-66
2021/12/04 01:15:01;;;;;;;1042.30;972.20;;;;;;;2.31;72.10;99818.63;688530;28;70305;-66
2021/12/04 01:15:22;;;;;;;1040.70;970.70;;;;;;;2.31;72.32;99818.63;691606;28;21536;-66
2021/12/04 01:15:44;;;;;;;1036.53;966.63;;;;;;;2.29;72.29;99813.44;691573;28;23535;-66
2021/12/04 01:16:05;;;;;;;1042.78;972.67;;;;;;;2.32;72.19;99814.94;690540;28;44271;-66
2021/12/04 01:16:27;;;;;;;1041.90;971.70;;;;;;;2.31;72.06;99815.97;692231;28;22398;-66
2021/12/04 01:16:49;;;;;;;1038.05;968.05;;;;;;;2.29;72.31;99815.28;690661;28;44049;-66
2021/12/04 01:17:10;;;;;;;1034.07;964.38;;;;;;;2.29;72.29;99812.63;691000;28;46320;-66
2021/12/04 01:17:31;;;;;;;1040.75;970.75;;;;;;;2.28;72.32;99811.75;691936;28;22391;-66
2021/12/04 01:17:53;;;;;;;1038.55;968.45;;;;;;;2.26;72.31;99805.75;688412;28;13687;-66
2021/12/04 01:18:14;;;;;;;1031.85;962.10;;;;;;;2.29;72.38;99812.63;689268;28;44160;-66
2021/12/04 01:18:35;;;;;;;1039.97;969.88;;;;;;;2.31;72.30;99814.13;689964;28;23393;-66
2021/12/04 01:18:57;;;;;;;1043.68;973.47;;;;;;;2.31;72.27;99810.63;690049;28;22592;-66
2021/12/04 01:19:19;;;;;;;1046.13;975.83;;;;;;;2.31;72.26;99819.44;689070;28;46303;-66
2021/12/04 01:19:40;;;;;;;1040.53;970.42;;;;;;;2.31;72.26;99815.97;689291;28;47400;-66
2021/12/04 01:20:01;;;;;;;1042.22;972.03;;;;;;;2.31;72.38;99816.78;691569;28;21442;-66
2021/12/04 01:20:23;;;;;;;1046.28;975.88;;;;;;;2.31;72.26;99813.28;691723;28;23826;-66
2021/12/04 01:20:44;;;;;;;1046.85;976.42;;;;;;;2.30;72.37;99808.94;690482;28;44311;-66
2021/12/04 01:21:05;;;;;;;1045.07;974.78;;;;;;;2.32;72.34;99815.81;691577;28;22384;-66
2021/12/04 01:21:26;;;;;;;1043.43;973.13;;;;;;;2.33;72.31;99813.97;692438;28;22405;-66
2021/12/04 01:21:49;;;;;;;1040.15;970.15;;;;;;;2.34;72.21;99818.34;696656;28;21955;-66
2021/12/04 01:22:11;;;;;;;1042.38;972.20;;;;;;;2.36;72.16;99823.50;697805;28;1715;-65
2021/12/04 01:22:33;;;;;;;1036.43;966.53;;;;;;;2.35;72.27;99812.00;696044;28;46366;-65
2021/12/04 01:22:54;;;;;;;1034.65;964.80;;;;;;;2.35;72.06;99817.31;695197;28;46982;-65
2021/12/04 01:23:16;;;;;;;1041.38;971.30;;;;;;;2.37;72.03;99809.19;697246;28;24320;-65
2021/12/04 01:23:38;;;;;;;1044.80;974.50;;;;;;;2.37;72.00;99822.50;692644;28;44371;-66
2021/12/04 01:24:00;;;;;;;1046.20;975.80;;;;;;;2.34;72.13;99819.16;689991;28;44536;-64
2021/12/04 01:24:21;;;;;;;1036.63;966.58;;;;;;;2.32;72.10;99813.16;691004;28;44797;-65
2021/12/04 01:24:43;;;;;;;1040.05;969.90;;;;;;;2.34;72.10;99810.34;690950;28;22996;-65
2021/12/04 01:25:04;;;;;;;1038.15;968.08;;;;;;;2.32;72.28;99810.47;691173;28;21546;-65
2021/12/04 01:25:26;;;;;;;1032.65;962.72;;;;;;;2.32;72.31;99817.63;691112;28;44363;-65
2021/12/04 01:25:47;;;;;;;1045.53;975.05;;;;;;;2.33;72.28;99809.47;690447;28;44385;-65
2021/12/04 01:26:08;;;;;;;1049.47;978.97;;;;;;;2.34;72.35;99821.00;691269;28;23524;-65
2021/12/04 01:26:29;;;;;;;1051.50;980.90;;;;;;;2.32;72.21;99802.50;691962;28;22407;-65
2021/12/04 01:26:52;;;;;;;1049.20;978.60;;;;;;;2.33;72.35;99816.63;691216;28;21633;-66
2021/12/04 01:27:14;;;;;;;1047.30;976.80;;;;;;;2.34;72.33;99811.16;690359;28;69211;-65
2021/12/04 01:27:37;;;;;;;1050.38;979.78;;;;;;;2.35;72.14;99820.00;690756;28;46369;-65
2021/12/04 01:27:58;;;;;;;1046.43;975.83;;;;;;;2.36;72.31;99815.53;688301;28;89021;-65
2021/12/04 01:28:21;;;;;;;1040.70;970.40;;;;;;;2.34;72.21;99810.34;691707;28;46337;-65
2021/12/04 01:28:42;;;;;;;1045.22;974.78;;;;;;;2.35;72.09;99817.31;689919;28;67095;-65
2021/12/04 01:29:03;;;;;;;1039.65;969.45;;;;;;;2.34;72.11;99815.66;691613;28;23473;-65
2021/12/04 01:29:24;;;;;;;1050.57;979.97;;;;;;;2.36;71.99;99808.34;692397;28;22390;-65
2021/12/04 01:29:46;;;;;;;1047.80;977.25;;;;;;;2.37;72.09;99811.84;691378;28;21525;-65
2021/12/04 01:30:08;;;;;;;1042.60;972.20;;;;;;;2.36;72.07;99803.03;690581;28;46450;-65
2021/12/04 01:30:29;;;;;;;1039.80;969.60;;;;;;;2.37;72.27;99809.19;690474;28;44360;-65
2021/12/04 01:30:50;;;;;;;1040.05;969.85;;;;;;;2.38;72.11;99816.19;691279;28;22426;-66
2021/12/04 01:31:12;;;;;;;1042.15;971.85;;;;;;;2.37;72.07;99819.84;691973;28;22980;-65
2021/12/04 01:31:33;;;;;;;1045.25;974.85;;;;;;;2.37;72.05;99812.72;691021;28;45319;-64
2021/12/04 01:31:54;;;;;;;1050.68;980.08;;;;;;;2.37;72.06;99812.72;691534;28;22468;-65
2021/12/04 01:32:15;;;;;;;1044.22;973.92;;;;;;;2.34;72.13;99816.50;691873;28;22488;-66
2021/12/04 01:32:36;;;;;;;1044.80;974.42;;;;;;;2.36;72.13;99815.53;690686;28;24439;-65
2021/12/04 01:32:58;;;;;;;1054.50;983.70;;;;;;;2.39;71.94;99824.06;691330;28;22476;-65
2021/12/04 01:33:19;;;;;;;1063.03;991.72;;;;;;;2.38;71.91;99813.53;691536;28;46463;-65
2021/12/04 01:33:40;;;;;;;1064.00;992.50;;;;;;;2.35;71.99;99812.00;690306;28;45383;-66
2021/12/04 01:34:02;;;;;;;1060.53;989.25;;;;;;;2.34;71.88;99813.84;696944;28;22091;-65
2021/12/04 01:34:24;;;;;;;1059.00;987.92;;;;;;;2.32;71.96;99809.63;698185;28;1549;-65
2021/12/04 01:34:45;;;;;;;1054.70;983.80;;;;;;;2.30;72.08;99809.81;696147;28;43934;-66
2021/12/04 01:35:07;;;;;;;1054.40;983.60;;;;;;;2.28;72.25;99814.41;696638;28;22441;-65
2021/12/04 01:35:28;;;;;;;1059.63;988.53;;;;;;;2.26;72.36;99808.41;696351;28;47206;-65
2021/12/04 01:35:50;;;;;;;1054.05;983.15;;;;;;;2.25;72.30;99806.72;695378;28;23526;-65
2021/12/04 01:36:11;;;;;;;1048.22;977.72;;;;;;;2.23;72.54;99806.03;692643;28;5309;-65
2021/12/04 01:36:33;;;;;;;1055.30;984.55;;;;;;;2.23;72.64;99803.38;690900;28;45022;-65
2021/12/04 01:36:54;;;;;;;1057.03;986.22;;;;;;;2.25;72.71;99813.88;691416;28;22464;-65
2021/12/04 01:37:16;;;;;;;1045.78;975.50;;;;;;;2.25;72.49;99814.72;691975;28;23497;-65
2021/12/04 01:37:37;;;;;;;1042.80;972.70;;;;;;;2.25;72.65;99809.38;689338;28;45324;-65
2021/12/04 01:37:58;;;;;;;1044.55;974.13;;;;;;;2.25;72.76;99804.06;691697;28;10773;-65
2021/12/04 01:38:19;;;;;;;1043.33;973.10;;;;;;;2.24;72.70;99805.06;695103;28;20874;-65
2021/12/04 01:38:41;;;;;;;1052.50;981.88;;;;;;;2.25;72.60;99809.38;689990;28;46380;-65
2021/12/04 01:39:05;;;;;;;1055.25;984.55;;;;;;;2.26;72.60;99813.72;691121;28;22396;-65
2021/12/04 01:39:26;;;;;;;1049.05;978.65;;;;;;;2.25;72.70;99822.69;689690;28;92028;-65
2021/12/04 01:39:47;;;;;;;1054.13;983.45;;;;;;;2.25;72.73;99803.22;691012;28;22400;-65
2021/12/04 01:40:09;;;;;;;1053.45;982.75;;;;;;;2.25;72.66;99805.88;691419;28;22500;-65
2021/12/04 01:40:31;;;;;;;1054.10;983.30;;;;;;;2.26;72.71;99808.41;690444;28;69562;-65
2021/12/04 01:40:52;;;;;;;1058.53;987.58;;;;;;;2.26;72.66;99813.72;690453;28;46526;-65
2021/12/04 01:41:13;;;;;;;1047.10;976.63;;;;;;;2.28;72.75;99808.25;691883;28;22391;-65
2021/12/04 01:41:35;;;;;;;1041.03;970.83;;;;;;;2.31;72.68;99805.31;692375;28;6396;-65
2021/12/04 01:41:57;;;;;;;1050.65;979.95;;;;;;;2.30;72.63;99819.59;691180;28;23216;-65
2021/12/04 01:42:18;;;;;;;1073.03;999.90;;;;;;;2.29;72.44;99808.09;691278;28;46968;-65
2021/12/04 01:42:39;;;;;;;1075.47;999.90;;;;;;;2.30;72.59;99812.47;690770;28;21550;-66
2021/12/04 01:43:00;;;;;;;1081.87;999.90;;;;;;;2.30;72.58;99803.59;691328;28;21621;-65
2021/12/04 01:43:26;;;;;;;1080.72;999.90;;;;;;;2.28;72.67;99802.94;691529;28;45350;-66
2021/12/04 01:43:47;;;;;;;1050.28;979.67;;;;;;;2.30;72.47;99807.13;687265;28;137708;-66
2021/12/04 01:44:08;;;;;;;1062.43;991.05;;;;;;;2.30;72.68;99806.28;691446;28;22184;-66
2021/12/04 01:44:30;;;;;;;1074.75;999.90;;;;;;;2.28;72.69;99809.09;692233;28;23424;-65
2021/12/04 01:44:51;;;;;;;1079.22;999.90;;;;;;;2.27;72.66;99802.09;691347;28;22447;-66
2021/12/04 01:45:13;;;;;;;1067.00;995.30;;;;;;;2.29;72.51;99801.94;691205;28;44127;-66
2021/12/04 01:45:40;;;;;;;1074.88;999.90;;;;;;;2.29;72.80;99808.09;687495;28;133774;-65
2021/12/04 01:46:02;;;;;;;1073.20;999.90;;;;;;;2.33;72.57;99800.66;691500;28;22395;-65
2021/12/04 01:46:24;;;;;;;1076.60;999.90;;;;;;;2.34;72.54;99816.50;692265;28;22330;-65
2021/12/04 01:46:45;;;;;;;1078.57;999.90;;;;;;;2.36;72.51;99808.34;689702;28;69205;-66
2021/12/04 01:47:11;;;;;;;1077.90;999.90;;;;;;;2.37;72.31;99804.72;691551;28;23433;-65
2021/12/04 01:47:32;;;;;;;1068.65;996.75;;;;;;;2.41;72.42;99813.25;687490;28;139040;-66
2021/12/04 01:47:57;;;;;;;1072.30;999.75;;;;;;;2.44;72.21;99810.28;690018;28;23473;-66
2021/12/04 01:48:19;;;;;;;1077.72;999.90;;;;;;;2.40;72.02;99792.91;687784;28;113389;-66
2021/12/04 01:48:40;;;;;;;1080.45;999.90;;;;;;;2.40;71.95;99806.22;690268;28;46279;-65
2021/12/04 01:49:02;;;;;;;1069.88;997.97;;;;;;;2.40;72.13;99806.22;691131;28;22437;-66
2021/12/04 01:49:24;;;;;;;1072.18;999.83;;;;;;;2.37;72.28;99809.19;693258;28;1271;-65
2021/12/04 01:49:45;;;;;;;1074.70;999.90;;;;;;;2.37;72.23;99809.19;696456;28;20474;-65
2021/12/04 01:50:08;;;;;;;1074.60;999.90;;;;;;;2.37;72.25;99815.38;696825;28;23476;-65
2021/12/04 01:50:30;;;;;;;1081.33;999.90;;;;;;;2.32;72.18;99804.28;693944;28;92444;-65
2021/12/04 01:50:52;;;;;;;1082.32;999.90;;;;;;;2.33;72.39;99806.81;694963;28;69424;-65
2021/12/04 01:51:13;;;;;;;1077.82;999.90;;;;;;;2.32;72.34;99809.63;696787;28;45617;-65
2021/12/04 01:51:36;;;;;;;1072.10;999.90;;;;;;;2.32;72.37;99810.47;695896;28;23500;-65
2021/12/04 01:51:57;;;;;;;1068.97;997.15;;;;;;;2.32;72.51;99804.28;690119;28;68334;-65
2021/12/04 01:52:18;;;;;;;1040.47;970.28;;;;;;;2.32;72.55;99805.16;692407;28;23513;-66